sensor_id;sensor_type;location;lat;lon;timestamp;pressure;altitude;pressure_sealevel;temperature;humidity
4398;BME280;2213;49.720;7.296;2022-12-18T00:01:42;99297.03;;;-8.93;100.00
4398;BME280;2213;49.720;7.296;2022-12-18T00:04:21;99298.03;;;-8.99;100.00
4398;BME280;2213;49.720;7.296;2022-12-18T00:06:53;99295.69;;;-9.08;100.00
4398;BME280;2213;49.720;7.296;2022-12-18T00:09:24;99296.38;;;-9.00;100.00
4398;BME280;2213;49.720;7.296;2022-12-18T00:12:08;99293.59;;;-8.91;100.00
4398;BME280;2213;49.720;7.296;2022-12-18T00:14:43;99295.22;;;-8.88;100.00
4398;BME280;2213;49.720;7.296;2022-12-18T00:17:12;99299.59;;;-8.95;100.00
4398;BME280;2213;49.720;7.296;2022-12-18T00:19:43;99309.78;;;-8.96;100.00
4398;BME280;2213;49.720;7.296;2022-12-18T00:22:14;99313.22;;;-8.99;100.00
4398;BME280;2213;49.720;7.296;2022-12-18T00:24:44;99310.88;;;-9.06;100.00
4398;BME280;2213;49.720;7.296;2022-12-18T00:27:16;99308.97;;;-8.98;100.00
4398;BME280;2213;49.720;7.296;2022-12-18T00:29:47;99310.66;;;-8.97;100.00
4398;BME280;2213;49.720;7.296;2022-12-18T00:32:18;99305.63;;;-8.99;100.00
4398;BME280;2213;49.720;7.296;2022-12-18T00:34:48;99316.47;;;-8.94;100.00
4398;BME280;2213;49.720;7.296;2022-12-18T00:37:19;99319.78;;;-8.92;100.00
4398;BME280;2213;49.720;7.296;2022-12-18T00:39:50;99317.25;;;-8.92;100.00
4398;BME280;2213;49.720;7.296;2022-12-18T00:42:21;99321.69;;;-9.00;100.00
4398;BME280;2213;49.720;7.296;2022-12-18T00:45:09;99309.03;;;-9.00;100.00
4398;BME280;2213;49.720;7.296;2022-12-18T00:47:40;99307.34;;;-9.01;100.00
4398;BME280;2213;49.720;7.296;2022-12-18T00:50:11;99306.56;;;-9.03;100.00
4398;BME280;2213;49.720;7.296;2022-12-18T00:52:41;99301.63;;;-9.09;100.00
4398;BME280;2213;49.720;7.296;2022-12-18T00:55:13;99297.63;;;-9.18;100.00
4398;BME280;2213;49.720;7.296;2022-12-18T00:57:45;99290.72;;;-9.12;100.00
4398;BME280;2213;49.720;7.296;2022-12-18T01:00:17;99286.38;;;-9.06;100.00
4398;BME280;2213;49.720;7.296;2022-12-18T01:02:46;99279.78;;;-9.13;100.00
4398;BME280;2213;49.720;7.296;2022-12-18T01:05:17;99291.56;;;-9.12;100.00
4398;BME280;2213;49.720;7.296;2022-12-18T01:07:47;99288.09;;;-9.08;100.00
4398;BME280;2213;49.720;7.296;2022-12-18T01:10:17;99301.75;;;-9.13;100.00
4398;BME280;2213;49.720;7.296;2022-12-18T01:12:47;99289.94;;;-9.13;100.00
4398;BME280;2213;49.720;7.296;2022-12-18T01:15:18;99294.00;;;-9.07;100.00
4398;BME280;2213;49.720;7.296;2022-12-18T01:17:47;99291.56;;;-9.12;100.00
4398;BME280;2213;49.720;7.296;2022-12-18T01:20:17;99287.38;;;-9.13;100.00
4398;BME280;2213;49.720;7.296;2022-12-18T01:22:46;99291.44;;;-9.06;100.00
4398;BME280;2213;49.720;7.296;2022-12-18T01:25:17;99301.56;;;-9.06;100.00
4398;BME280;2213;49.720;7.296;2022-12-18T01:27:49;99298.97;;;-9.03;100.00
4398;BME280;2213;49.720;7.296;2022-12-18T01:30:19;99303.22;;;-9.05;100.00
4398;BME280;2213;49.720;7.296;2022-12-18T01:32:50;99304.91;;;-9.04;100.00
4398;BME280;2213;49.720;7.296;2022-12-18T01:35:20;99306.66;;;-9.06;100.00
4398;BME280;2213;49.720;7.296;2022-12-18T01:37:54;99310.03;;;-9.07;100.00
4398;BME280;2213;49.720;7.296;2022-12-18T01:40:24;99325.31;;;-9.10;100.00
4398;BME280;2213;49.720;7.296;2022-12-18T01:42:56;99335.53;;;-9.16;100.00
4398;BME280;2213;49.720;7.296;2022-12-18T01:45:28;99333.06;;;-9.18;100.00
4398;BME280;2213;49.720;7.296;2022-12-18T01:48:02;99349.03;;;-9.14;100.00
4398;BME280;2213;49.720;7.296;2022-12-18T01:50:35;99356.63;;;-9.14;100.00
4398;BME280;2213;49.720;7.296;2022-12-18T01:53:11;99354.09;;;-9.15;100.00
4398;BME280;2213;49.720;7.296;2022-12-18T01:55:47;99355.09;;;-9.21;100.00
4398;BME280;2213;49.720;7.296;2022-12-18T01:58:21;99357.63;;;-9.21;100.00
4398;BME280;2213;49.720;7.296;2022-12-18T02:00:55;99344.88;;;-9.16;100.00
4398;BME280;2213;49.720;7.296;2022-12-18T02:03:28;99347.63;;;-9.27;100.00
4398;BME280;2213;49.720;7.296;2022-12-18T02:06:06;99334.06;;;-9.26;100.00
4398;BME280;2213;49.720;7.296;2022-12-18T02:08:48;99324.84;;;-9.27;100.00
4398;BME280;2213;49.720;7.296;2022-12-18T02:11:33;99314.81;;;-9.32;100.00
4398;BME280;2213;49.720;7.296;2022-12-18T02:14:23;99315.66;;;-9.31;100.00
4398;BME280;2213;49.720;7.296;2022-12-18T02:17:00;99316.72;;;-9.43;100.00
4398;BME280;2213;49.720;7.296;2022-12-18T02:19:59;99326.91;;;-9.46;100.00
4398;BME280;2213;49.720;7.296;2022-12-18T02:22:44;99332.69;;;-9.39;100.00
4398;BME280;2213;49.720;7.296;2022-12-18T02:25:40;99339.41;;;-9.38;100.00
4398;BME280;2213;49.720;7.296;2022-12-18T02:28:21;99321.63;;;-9.35;100.00
4398;BME280;2213;49.720;7.296;2022-12-18T02:30:56;99325.09;;;-9.39;100.00
4398;BME280;2213;49.720;7.296;2022-12-18T02:33:30;99326.91;;;-9.46;100.00
4398;BME280;2213;49.720;7.296;2022-12-18T02:36:04;99312.50;;;-9.42;100.00
4398;BME280;2213;49.720;7.296;2022-12-18T02:38:36;99308.31;;;-9.43;100.00
4398;BME280;2213;49.720;7.296;2022-12-18T02:41:07;99312.00;;;-9.58;100.00
4398;BME280;2213;49.720;7.296;2022-12-18T02:43:39;99301.00;;;-9.57;100.00
4398;BME280;2213;49.720;7.296;2022-12-18T02:46:32;99310.28;;;-9.57;100.00
4398;BME280;2213;49.720;7.296;2022-12-18T02:49:26;99323.91;;;-9.63;100.00
4398;BME280;2213;49.720;7.296;2022-12-18T02:52:08;99323.00;;;-9.60;100.00
4398;BME280;2213;49.720;7.296;2022-12-18T02:55:04;99312.00;;;-9.58;100.00
4398;BME280;2213;49.720;7.296;2022-12-18T02:58:15;99308.72;;;-9.63;100.00
4398;BME280;2213;49.720;7.296;2022-12-18T03:00:57;99306.97;;;-9.61;100.00
4398;BME280;2213;49.720;7.296;2022-12-18T03:03:34;99307.81;;;-9.60;100.00
4398;BME280;2213;49.720;7.296;2022-12-18T03:06:13;99307.81;;;-9.60;100.00
4398;BME280;2213;49.720;7.296;2022-12-18T03:08:56;99310.28;;;-9.57;100.00
4398;BME280;2213;49.720;7.296;2022-12-18T03:11:54;99319.69;;;-9.62;100.00
4398;BME280;2213;49.720;7.296;2022-12-18T03:14:45;99309.63;;;-9.65;100.00
4398;BME280;2213;49.720;7.296;2022-12-18T03:17:20;99316.38;;;-9.66;100.00
4398;BME280;2213;49.720;7.296;2022-12-18T03:19:53;99323.88;;;-9.61;100.00
4398;BME280;2213;49.720;7.296;2022-12-18T03:22:32;99316.41;;;-9.68;100.00
4398;BME280;2213;49.720;7.296;2022-12-18T03:25:08;99309.09;;;-9.81;100.00
4398;BME280;2213;49.720;7.296;2022-12-18T03:27:44;99318.38;;;-9.82;100.00
4398;BME280;2213;49.720;7.296;2022-12-18T03:30:17;99327.56;;;-9.76;100.00
4398;BME280;2213;49.720;7.296;2022-12-18T03:32:58;99338.44;;;-9.73;100.00
4398;BME280;2213;49.720;7.296;2022-12-18T03:35:34;99329.09;;;-9.69;100.00
4398;BME280;2213;49.720;7.296;2022-12-18T03:38:10;99323.22;;;-9.71;100.00
4398;BME280;2213;49.720;7.296;2022-12-18T03:40:59;99330.03;;;-9.75;100.00
4398;BME280;2213;49.720;7.296;2022-12-18T03:43:48;99317.38;;;-9.73;100.00
4398;BME280;2213;49.720;7.296;2022-12-18T03:46:28;99327.41;;;-9.68;100.00
4398;BME280;2213;49.720;7.296;2022-12-18T03:49:09;99325.59;;;-9.63;100.00
4398;BME280;2213;49.720;7.296;2022-12-18T03:51:47;99325.59;;;-9.62;100.00
4398;BME280;2213;49.720;7.296;2022-12-18T03:54:20;99323.78;;;-9.57;100.00
4398;BME280;2213;49.720;7.296;2022-12-18T03:56:57;99318.63;;;-9.52;100.00
4398;BME280;2213;49.720;7.296;2022-12-18T03:59:30;99309.28;;;-9.50;100.00
4398;BME280;2213;49.720;7.296;2022-12-18T04:02:04;99310.97;;;-9.49;100.00
4398;BME280;2213;49.720;7.296;2022-12-18T04:04:37;99312.63;;;-9.48;100.00
4398;BME280;2213;49.720;7.296;2022-12-18T04:07:08;99300.06;;;-9.53;100.00
4398;BME280;2213;49.720;7.296;2022-12-18T04:09:40;99306.75;;;-9.49;100.00
4398;BME280;2213;49.720;7.296;2022-12-18T04:12:11;99299.09;;;-9.47;100.00
4398;BME280;2213;49.720;7.296;2022-12-18T04:14:41;99304.22;;;-9.50;100.00
4398;BME280;2213;49.720;7.296;2022-12-18T04:17:12;99295.84;;;-9.52;100.00
4398;BME280;2213;49.720;7.296;2022-12-18T04:19:42;99289.94;;;-9.53;100.00
4398;BME280;2213;49.720;7.296;2022-12-18T04:22:13;99294.19;;;-9.53;100.00
4398;BME280;2213;49.720;7.296;2022-12-18T04:24:42;99297.63;;;-9.57;100.00
4398;BME280;2213;49.720;7.296;2022-12-18T04:27:12;99296.00;;;-9.60;100.00
4398;BME280;2213;49.720;7.296;2022-12-18T04:29:41;99312.78;;;-9.54;100.00
4398;BME280;2213;49.720;7.296;2022-12-18T04:32:15;99306.75;;;-9.50;100.00
4398;BME280;2213;49.720;7.296;2022-12-18T04:34:47;99310.03;;;-9.45;100.00
4398;BME280;2213;49.720;7.296;2022-12-18T04:37:17;99307.50;;;-9.45;100.00
4398;BME280;2213;49.720;7.296;2022-12-18T04:39:47;99306.69;;;-9.46;100.00
4398;BME280;2213;49.720;7.296;2022-12-18T04:42:16;99310.91;;;-9.46;100.00
4398;BME280;2213;49.720;7.296;2022-12-18T04:44:46;99305.78;;;-9.43;100.00
4398;BME280;2213;49.720;7.296;2022-12-18T04:47:17;99306.59;;;-9.41;100.00
4398;BME280;2213;49.720;7.296;2022-12-18T04:49:48;99304.91;;;-9.41;100.00
4398;BME280;2213;49.720;7.296;2022-12-18T04:52:19;99298.09;;;-9.39;100.00
4398;BME280;2213;49.720;7.296;2022-12-18T04:54:53;99313.19;;;-9.36;100.00
4398;BME280;2213;49.720;7.296;2022-12-18T04:57:22;99308.28;;;-9.42;100.00
4398;BME280;2213;49.720;7.296;2022-12-18T04:59:53;99299.75;;;-9.38;100.00
4398;BME280;2213;49.720;7.296;2022-12-18T05:02:23;99300.59;;;-9.37;100.00
4398;BME280;2213;49.720;7.296;2022-12-18T05:04:53;99302.16;;;-9.33;100.00
4398;BME280;2213;49.720;7.296;2022-12-18T05:07:23;99298.84;;;-9.35;100.00
4398;BME280;2213;49.720;7.296;2022-12-18T05:09:54;99300.44;;;-9.31;100.00
4398;BME280;2213;49.720;7.296;2022-12-18T05:12:23;99302.06;;;-9.27;100.00
4398;BME280;2213;49.720;7.296;2022-12-18T05:14:53;99303.69;;;-9.26;100.00
4398;BME280;2213;49.720;7.296;2022-12-18T05:17:22;99304.53;;;-9.24;100.00
4398;BME280;2213;49.720;7.296;2022-12-18T05:19:52;99304.41;;;-9.20;100.00
4398;BME280;2213;49.720;7.296;2022-12-18T05:22:21;99304.38;;;-9.18;100.00
4398;BME280;2213;49.720;7.296;2022-12-18T05:24:53;99312.88;;;-9.21;100.00
4398;BME280;2213;49.720;7.296;2022-12-18T05:27:23;99313.63;;;-9.17;100.00
4398;BME280;2213;49.720;7.296;2022-12-18T05:29:54;99306.03;;;-9.17;100.00
4398;BME280;2213;49.720;7.296;2022-12-18T05:32:24;99317.03;;;-9.18;100.00
4398;BME280;2213;49.720;7.296;2022-12-18T05:34:54;99323.78;;;-9.19;100.00
4398;BME280;2213;49.720;7.296;2022-12-18T05:37:25;99327.84;;;-9.11;100.00
4398;BME280;2213;49.720;7.296;2022-12-18T05:39:55;99336.25;;;-9.09;100.00
4398;BME280;2213;49.720;7.296;2022-12-18T05:42:24;99335.34;;;-9.07;100.00
4398;BME280;2213;49.720;7.296;2022-12-18T05:44:54;99333.72;;;-9.09;100.00
4398;BME280;2213;49.720;7.296;2022-12-18T05:47:24;99333.66;;;-9.06;100.00
4398;BME280;2213;49.720;7.296;2022-12-18T05:49:55;99327.75;;;-9.07;100.00
4398;BME280;2213;49.720;7.296;2022-12-18T05:52:25;99322.72;;;-9.08;100.00
4398;BME280;2213;49.720;7.296;2022-12-18T05:54:55;99325.22;;;-9.07;100.00
4398;BME280;2213;49.720;7.296;2022-12-18T05:57:27;99326.91;;;-9.06;100.00
4398;BME280;2213;49.720;7.296;2022-12-18T05:59:58;99326.91;;;-9.06;100.00
4398;BME280;2213;49.720;7.296;2022-12-18T06:02:28;99336.13;;;-9.03;100.00
4398;BME280;2213;49.720;7.296;2022-12-18T06:05:00;99336.97;;;-9.03;100.00
4398;BME280;2213;49.720;7.296;2022-12-18T06:07:30;99336.97;;;-9.03;100.00
4398;BME280;2213;49.720;7.296;2022-12-18T06:10:00;99336.97;;;-9.03;100.00
4398;BME280;2213;49.720;7.296;2022-12-18T06:12:30;99332.72;;;-9.02;100.00
4398;BME280;2213;49.720;7.296;2022-12-18T06:15:01;99340.22;;;-8.98;100.00
4398;BME280;2213;49.720;7.296;2022-12-18T06:17:32;99341.09;;;-8.99;100.00
4398;BME280;2213;49.720;7.296;2022-12-18T06:20:04;99345.28;;;-8.98;100.00
4398;BME280;2213;49.720;7.296;2022-12-18T06:22:35;99343.50;;;-8.94;100.00
4398;BME280;2213;49.720;7.296;2022-12-18T06:25:08;99332.59;;;-8.98;100.00
4398;BME280;2213;49.720;7.296;2022-12-18T06:27:37;99332.69;;;-9.01;100.00
4398;BME280;2213;49.720;7.296;2022-12-18T06:30:12;99343.66;;;-9.02;100.00
4398;BME280;2213;49.720;7.296;2022-12-18T06:32:44;99343.66;;;-9.02;100.00
4398;BME280;2213;49.720;7.296;2022-12-18T06:35:24;99337.81;;;-9.04;100.00
4398;BME280;2213;49.720;7.296;2022-12-18T06:37:54;99332.78;;;-9.05;100.00
4398;BME280;2213;49.720;7.296;2022-12-18T06:40:23;99338.69;;;-9.05;100.00
4398;BME280;2213;49.720;7.296;2022-12-18T06:42:53;99335.34;;;-9.07;100.00
4398;BME280;2213;49.720;7.296;2022-12-18T06:45:22;99322.66;;;-9.05;100.00
4398;BME280;2213;49.720;7.296;2022-12-18T06:47:54;99327.75;;;-9.07;100.00
4398;BME280;2213;49.720;7.296;2022-12-18T06:50:27;99328.59;;;-9.06;100.00
4398;BME280;2213;49.720;7.296;2022-12-18T06:52:56;99332.84;;;-9.08;100.00
4398;BME280;2213;49.720;7.296;2022-12-18T06:55:28;99337.06;;;-9.09;100.00
4398;BME280;2213;49.720;7.296;2022-12-18T06:57:58;99336.19;;;-9.06;100.00
4398;BME280;2213;49.720;7.296;2022-12-18T07:00:28;99330.28;;;-9.07;100.00
4398;BME280;2213;49.720;7.296;2022-12-18T07:02:57;99330.38;;;-9.10;100.00
4398;BME280;2213;49.720;7.296;2022-12-18T07:05:28;99330.28;;;-9.07;100.00
4398;BME280;2213;49.720;7.296;2022-12-18T07:07:58;99332.84;;;-9.08;100.00
4398;BME280;2213;49.720;7.296;2022-12-18T07:10:29;99335.34;;;-9.07;100.00
4398;BME280;2213;49.720;7.296;2022-12-18T07:12:59;99335.31;;;-9.05;100.00
4398;BME280;2213;49.720;7.296;2022-12-18T07:15:28;99337.75;;;-9.01;100.00
4398;BME280;2213;49.720;7.296;2022-12-18T07:17:58;99336.97;;;-9.03;100.00
4398;BME280;2213;49.720;7.296;2022-12-18T07:20:30;99337.66;;;-8.98;100.00
4398;BME280;2213;49.720;7.296;2022-12-18T07:23:02;99346.94;;;-8.97;100.00
4398;BME280;2213;49.720;7.296;2022-12-18T07:25:34;99346.09;;;-8.96;100.00
4398;BME280;2213;49.720;7.296;2022-12-18T07:28:04;99346.03;;;-8.94;100.00
4398;BME280;2213;49.720;7.296;2022-12-18T07:30:38;99346.91;;;-8.95;100.00
4398;BME280;2213;49.720;7.296;2022-12-18T07:33:13;99351.16;;;-8.96;100.00
4398;BME280;2213;49.720;7.296;2022-12-18T07:35:45;99348.63;;;-8.96;100.00
4398;BME280;2213;49.720;7.296;2022-12-18T07:38:15;99352.00;;;-8.97;100.00
4398;BME280;2213;49.720;7.296;2022-12-18T07:40:45;99360.31;;;-8.92;100.00
4398;BME280;2213;49.720;7.296;2022-12-18T07:43:15;99351.06;;;-8.93;100.00
4398;BME280;2213;49.720;7.296;2022-12-18T07:45:49;99362.00;;;-8.91;100.00
4398;BME280;2213;49.720;7.296;2022-12-18T07:48:19;99362.84;;;-8.90;100.00
4398;BME280;2213;49.720;7.296;2022-12-18T07:50:49;99367.13;;;-8.94;100.00
4398;BME280;2213;49.720;7.296;2022-12-18T07:53:19;99377.19;;;-8.89;100.00
4398;BME280;2213;49.720;7.296;2022-12-18T07:55:54;99378.72;;;-8.84;100.00
4398;BME280;2213;49.720;7.296;2022-12-18T07:58:44;99374.41;;;-8.80;100.00
4398;BME280;2213;49.720;7.296;2022-12-18T08:01:15;99369.28;;;-8.77;100.00
4398;BME280;2213;49.720;7.296;2022-12-18T08:03:45;99366.66;;;-8.73;100.00
4398;BME280;2213;49.720;7.296;2022-12-18T08:06:18;99360.66;;;-8.70;100.00
4398;BME280;2213;49.720;7.296;2022-12-18T08:08:52;99364.91;;;-8.71;100.00
4398;BME280;2213;49.720;7.296;2022-12-18T08:11:24;99348.06;;;-8.72;100.00
4398;BME280;2213;49.720;7.296;2022-12-18T08:13:54;99344.56;;;-8.68;100.00
4398;BME280;2213;49.720;7.296;2022-12-18T08:16:25;99341.06;;;-8.62;100.00
4398;BME280;2213;49.720;7.296;2022-12-18T08:18:55;99341.75;;;-8.55;100.00
4398;BME280;2213;49.720;7.296;2022-12-18T08:21:29;99333.22;;;-8.53;100.00
4398;BME280;2213;49.720;7.296;2022-12-18T08:24:00;99327.25;;;-8.50;100.00
4398;BME280;2213;49.720;7.296;2022-12-18T08:26:31;99332.28;;;-8.49;100.00
4398;BME280;2213;49.720;7.296;2022-12-18T08:29:02;99323.69;;;-8.43;100.00
4398;BME280;2213;49.720;7.296;2022-12-18T08:31:31;99311.72;;;-8.38;100.00
4398;BME280;2213;49.720;7.296;2022-12-18T08:34:01;99308.16;;;-8.31;100.00
4398;BME280;2213;49.720;7.296;2022-12-18T08:36:33;99300.47;;;-8.28;100.00
4398;BME280;2213;49.720;7.296;2022-12-18T08:39:02;99307.13;;;-8.26;100.00
4398;BME280;2213;49.720;7.296;2022-12-18T08:41:34;99319.69;;;-8.20;100.00
4398;BME280;2213;49.720;7.296;2022-12-18T08:44:06;99319.53;;;-8.15;100.00
4398;BME280;2213;49.720;7.296;2022-12-18T08:46:53;99324.47;;;-8.09;100.00
4398;BME280;2213;49.720;7.296;2022-12-18T08:49:24;99326.13;;;-8.08;100.00
4398;BME280;2213;49.720;7.296;2022-12-18T08:51:56;99326.88;;;-8.04;100.00
4398;BME280;2213;49.720;7.296;2022-12-18T08:54:28;99336.91;;;-8.00;100.00
4398;BME280;2213;49.720;7.296;2022-12-18T08:56:58;99329.19;;;-7.97;100.00
4398;BME280;2213;49.720;7.296;2022-12-18T08:59:29;99326.50;;;-7.91;100.00
4398;BME280;2213;49.720;7.296;2022-12-18T09:02:00;99331.53;;;-7.89;100.00
4398;BME280;2213;49.720;7.296;2022-12-18T09:04:31;99328.06;;;-7.85;100.00
4398;BME280;2213;49.720;7.296;2022-12-18T09:07:04;99335.53;;;-7.81;100.00
4398;BME280;2213;49.720;7.296;2022-12-18T09:09:33;99342.09;;;-7.74;100.00
4398;BME280;2213;49.720;7.296;2022-12-18T09:12:03;99344.50;;;-7.68;100.00
4398;BME280;2213;49.720;7.296;2022-12-18T09:14:34;99351.09;;;-7.62;100.00
4398;BME280;2213;49.720;7.296;2022-12-18T09:17:03;99353.44;;;-7.56;100.00
4398;BME280;2213;49.720;7.296;2022-12-18T09:19:34;99349.09;;;-7.51;100.00
4398;BME280;2213;49.720;7.296;2022-12-18T09:22:05;99343.00;;;-7.45;100.00
4398;BME280;2213;49.720;7.296;2022-12-18T09:24:35;99353.00;;;-7.39;100.00
4398;BME280;2213;49.720;7.296;2022-12-18T09:27:07;99357.88;;;-7.33;100.00
4398;BME280;2213;49.720;7.296;2022-12-18T09:29:37;99354.31;;;-7.26;100.00
4398;BME280;2213;49.720;7.296;2022-12-18T09:32:07;99352.44;;;-7.21;100.00
4398;BME280;2213;49.720;7.296;2022-12-18T09:34:37;99351.38;;;-7.14;100.00
4398;BME280;2213;49.720;7.296;2022-12-18T09:37:08;99348.69;;;-7.08;100.00
4398;BME280;2213;49.720;7.296;2022-12-18T09:39:39;99350.22;;;-7.04;100.00
4398;BME280;2213;49.720;7.296;2022-12-18T09:42:20;99355.97;;;-6.97;100.00
4398;BME280;2213;49.720;7.296;2022-12-18T09:44:53;99371.03;;;-6.91;100.00
4398;BME280;2213;49.720;7.296;2022-12-18T09:47:28;99363.25;;;-6.87;100.00
4398;BME280;2213;49.720;7.296;2022-12-18T09:50:05;99359.75;;;-6.83;100.00
4398;BME280;2213;49.720;7.296;2022-12-18T09:52:51;99359.63;;;-6.78;100.00
4398;BME280;2213;49.720;7.296;2022-12-18T09:55:28;99349.31;;;-6.74;100.00
4398;BME280;2213;49.720;7.296;2022-12-18T09:58:10;99341.53;;;-6.69;100.00
4398;BME280;2213;49.720;7.296;2022-12-18T10:00:43;99339.63;;;-6.63;100.00
4398;BME280;2213;49.720;7.296;2022-12-18T10:03:15;99333.56;;;-6.58;100.00
4398;BME280;2213;49.720;7.296;2022-12-18T10:05:58;99328.38;;;-6.55;100.00
4398;BME280;2213;49.720;7.296;2022-12-18T10:08:46;99322.28;;;-6.50;100.00
4398;BME280;2213;49.720;7.296;2022-12-18T10:11:36;99317.91;;;-6.46;100.00
4398;BME280;2213;49.720;7.296;2022-12-18T10:14:17;99319.41;;;-6.41;100.00
4398;BME280;2213;49.720;7.296;2022-12-18T10:17:03;99320.97;;;-6.37;100.00
4398;BME280;2213;49.720;7.296;2022-12-18T10:19:43;99312.38;;;-6.33;100.00
4398;BME280;2213;49.720;7.296;2022-12-18T10:22:43;99313.00;;;-6.26;100.00
4398;BME280;2213;49.720;7.296;2022-12-18T10:25:24;99322.19;;;-6.22;100.00
4398;BME280;2213;49.720;7.296;2022-12-18T10:28:00;99327.09;;;-6.18;100.00
4398;BME280;2213;49.720;7.296;2022-12-18T10:30:38;99327.09;;;-6.18;100.00
4398;BME280;2213;49.720;7.296;2022-12-18T10:33:12;99321.03;;;-6.14;100.00
4398;BME280;2213;49.720;7.296;2022-12-18T10:35:45;99318.34;;;-6.09;100.00
4398;BME280;2213;49.720;7.296;2022-12-18T10:38:27;99320.00;;;-6.08;100.00
4398;BME280;2213;49.720;7.296;2022-12-18T10:41:01;99323.22;;;-6.03;100.00
4398;BME280;2213;49.720;7.296;2022-12-18T10:43:32;99310.38;;;-6.00;100.00
4398;BME280;2213;49.720;7.296;2022-12-18T10:46:13;99303.56;;;-5.99;100.00
4398;BME280;2213;49.720;7.296;2022-12-18T10:48:53;99308.44;;;-5.93;100.00
4398;BME280;2213;49.720;7.296;2022-12-18T10:51:26;99304.91;;;-5.89;100.00
4398;BME280;2213;49.720;7.296;2022-12-18T10:54:02;99304.88;;;-5.88;100.00
4398;BME280;2213;49.720;7.296;2022-12-18T10:56:38;99306.38;;;-5.84;100.00
4398;BME280;2213;49.720;7.296;2022-12-18T10:59:12;99295.44;;;-5.86;100.00
4398;BME280;2213;49.720;7.296;2022-12-18T11:01:49;99303.00;;;-5.84;100.00
4398;BME280;2213;49.720;7.296;2022-12-18T11:04:23;99308.00;;;-5.81;100.00
4398;BME280;2213;49.720;7.296;2022-12-18T11:07:00;99308.72;;;-5.78;100.00
4398;BME280;2213;49.720;7.296;2022-12-18T11:09:32;99298.41;;;-5.75;100.00
4398;BME280;2213;49.720;7.296;2022-12-18T11:12:15;99281.41;;;-5.74;100.00
4398;BME280;2213;49.720;7.296;2022-12-18T11:14:49;99281.25;;;-5.70;100.00
4398;BME280;2213;49.720;7.296;2022-12-18T11:17:24;99287.16;;;-5.69;100.00
4398;BME280;2213;49.720;7.296;2022-12-18T11:19:56;99278.59;;;-5.67;100.00
4398;BME280;2213;49.720;7.296;2022-12-18T11:22:28;99272.50;;;-5.63;100.00
4398;BME280;2213;49.720;7.296;2022-12-18T11:25:02;99263.94;;;-5.60;100.00
4398;BME280;2213;49.720;7.296;2022-12-18T11:27:57;99255.31;;;-5.57;100.00
4398;BME280;2213;49.720;7.296;2022-12-18T11:30:30;99264.53;;;-5.53;100.00
4398;BME280;2213;49.720;7.296;2022-12-18T11:33:05;99260.19;;;-5.51;100.00
4398;BME280;2213;49.720;7.296;2022-12-18T11:35:42;99260.09;;;-5.48;100.00
4398;BME280;2213;49.720;7.296;2022-12-18T11:38:21;99270.16;;;-5.45;100.00
4398;BME280;2213;49.720;7.296;2022-12-18T11:40:59;99269.94;;;-5.39;100.00
4398;BME280;2213;49.720;7.296;2022-12-18T11:43:40;99267.31;;;-5.38;100.00
4398;BME280;2213;49.720;7.296;2022-12-18T11:46:18;99269.94;;;-5.39;100.00
4398;BME280;2213;49.720;7.296;2022-12-18T11:48:55;99266.31;;;-5.34;100.00
4398;BME280;2213;49.720;7.296;2022-12-18T11:51:34;99267.09;;;-5.32;100.00
4398;BME280;2213;49.720;7.296;2022-12-18T11:54:12;99258.34;;;-5.25;100.00
4398;BME280;2213;49.720;7.296;2022-12-18T11:56:48;99265.78;;;-5.20;100.00
4398;BME280;2213;49.720;7.296;2022-12-18T11:59:32;99261.34;;;-5.15;100.00
4398;BME280;2213;49.720;7.296;2022-12-18T12:02:24;99258.69;;;-5.12;100.00
4398;BME280;2213;49.720;7.296;2022-12-18T12:05:22;99260.25;;;-5.10;100.00
4398;BME280;2213;49.720;7.296;2022-12-18T12:08:03;99251.69;;;-5.07;100.00
4398;BME280;2213;49.720;7.296;2022-12-18T12:10:51;99243.13;;;-5.06;100.00
4398;BME280;2213;49.720;7.296;2022-12-18T12:13:46;99249.06;;;-5.05;100.00
4398;BME280;2213;49.720;7.296;2022-12-18T12:16:27;99256.53;;;-5.01;100.00
4398;BME280;2213;49.720;7.296;2022-12-18T12:19:19;99254.75;;;-4.99;100.00
4398;BME280;2213;49.720;7.296;2022-12-18T12:22:06;99249.53;;;-4.96;100.00
4398;BME280;2213;49.720;7.296;2022-12-18T12:24:57;99243.53;;;-4.95;100.00
4398;BME280;2213;49.720;7.296;2022-12-18T12:27:39;99234.13;;;-4.93;100.00
4398;BME280;2213;49.720;7.296;2022-12-18T12:30:20;99229.78;;;-4.91;100.00
4398;BME280;2213;49.720;7.296;2022-12-18T12:33:08;99225.44;;;-4.89;100.00
4398;BME280;2213;49.720;7.296;2022-12-18T12:35:53;99227.94;;;-4.87;100.00
4398;BME280;2213;49.720;7.296;2022-12-18T12:38:30;99219.44;;;-4.88;100.00
4398;BME280;2213;49.720;7.296;2022-12-18T12:41:06;99216.91;;;-4.88;100.00
4398;BME280;2213;49.720;7.296;2022-12-18T12:44:02;99209.13;;;-4.85;100.00
4398;BME280;2213;49.720;7.296;2022-12-18T12:46:37;99205.69;;;-4.84;100.00
4398;BME280;2213;49.720;7.296;2022-12-18T12:49:15;99204.81;;;-4.83;100.00
4398;BME280;2213;49.720;7.296;2022-12-18T12:51:53;99199.63;;;-4.81;100.00
4398;BME280;2213;49.720;7.296;2022-12-18T12:54:27;99190.25;;;-4.81;100.00
4398;BME280;2213;49.720;7.296;2022-12-18T12:57:02;99185.09;;;-4.79;100.00
4398;BME280;2213;49.720;7.296;2022-12-18T12:59:45;99186.63;;;-4.75;100.00
4398;BME280;2213;49.720;7.296;2022-12-18T13:02:26;99188.97;;;-4.71;100.00
4398;BME280;2213;49.720;7.296;2022-12-18T13:05:05;99186.38;;;-4.69;100.00
4398;BME280;2213;49.720;7.296;2022-12-18T13:07:47;99189.75;;;-4.69;100.00
4398;BME280;2213;49.720;7.296;2022-12-18T13:10:42;99186.38;;;-4.69;100.00
4398;BME280;2213;49.720;7.296;2022-12-18T13:13:15;99184.72;;;-4.70;100.00
4398;BME280;2213;49.720;7.296;2022-12-18T13:16:07;99180.31;;;-4.67;100.00
4398;BME280;2213;49.720;7.296;2022-12-18T13:18:40;99185.38;;;-4.65;100.00
4398;BME280;2213;49.720;7.296;2022-12-18T13:21:23;99182.81;;;-4.65;100.00
4398;BME280;2213;49.720;7.296;2022-12-18T13:23:55;99174.25;;;-4.64;100.00
4398;BME280;2213;49.720;7.296;2022-12-18T13:26:32;99181.00;;;-4.63;100.00
4398;BME280;2213;49.720;7.296;2022-12-18T13:29:03;99181.72;;;-4.60;100.00
4398;BME280;2213;49.720;7.296;2022-12-18T13:32:19;99179.16;;;-4.60;100.00
4398;BME280;2213;49.720;7.296;2022-12-18T13:35:40;99184.19;;;-4.58;100.00
4398;BME280;2213;49.720;7.296;2022-12-18T13:38:32;99179.06;;;-4.58;100.00
4398;BME280;2213;49.720;7.296;2022-12-18T13:41:22;99171.50;;;-4.60;100.00
4398;BME280;2213;49.720;7.296;2022-12-18T13:43:55;99167.25;;;-4.59;100.00
4398;BME280;2213;49.720;7.296;2022-12-18T13:46:44;99177.38;;;-4.58;100.00
4398;BME280;2213;49.720;7.296;2022-12-18T13:49:24;99173.03;;;-4.55;100.00
4398;BME280;2213;49.720;7.296;2022-12-18T13:51:56;99171.31;;;-4.55;100.00
4398;BME280;2213;49.720;7.296;2022-12-18T13:54:33;99172.13;;;-4.54;100.00